createdAt,value
2019-04-10T00:00:04.960Z,10.18
2019-04-10T00:02:41.732Z,10.20
2019-04-10T00:05:16.407Z,10.24
2019-04-10T00:07:51.377Z,10.18
2019-04-10T00:10:24.864Z,10.18
2019-04-10T00:13:00.399Z,10.16
2019-04-10T00:15:40.226Z,10.02
2019-04-10T00:18:15.823Z,10.01
2019-04-10T00:20:58.633Z,9.99
2019-04-10T00:23:33.254Z,10.05
2019-04-10T00:26:07.688Z,10.05
2019-04-10T00:28:41.907Z,10.05
2019-04-10T00:31:15.865Z,10.07
2019-04-10T00:33:49.967Z,9.89
2019-04-10T00:36:25.163Z,9.79
2019-04-10T00:39:00.216Z,9.72
2019-04-10T00:41:36.442Z,9.70
2019-04-10T00:44:13.341Z,9.72
2019-04-10T00:46:49.142Z,9.81
2019-04-10T00:49:23.721Z,9.85
2019-04-10T00:51:59.579Z,9.90
2019-04-10T00:54:33.518Z,9.97
2019-04-10T00:57:07.594Z,9.96
2019-04-10T00:59:42.144Z,9.94
2019-04-10T01:02:18.709Z,9.95
2019-04-10T01:04:52.988Z,9.96
2019-04-10T01:07:36.643Z,9.99
2019-04-10T01:10:04.027Z,10.01
2019-04-10T01:12:38.377Z,9.98
2019-04-10T01:15:12.712Z,9.99
2019-04-10T01:17:54.811Z,9.97
2019-04-10T01:20:29.368Z,9.94
2019-04-10T01:23:03.590Z,9.99
2019-04-10T01:25:38.726Z,9.93
2019-04-10T01:28:12.363Z,9.96
2019-04-10T01:30:46.627Z,9.97
2019-04-10T01:33:22.778Z,9.90
2019-04-10T01:35:56.467Z,9.87
2019-04-10T01:38:30.500Z,9.66
2019-04-10T01:41:05.740Z,9.52
2019-04-10T01:43:39.663Z,9.36
2019-04-10T01:46:13.902Z,9.45
2019-04-10T01:48:49.106Z,9.44
2019-04-10T01:51:25.541Z,9.49
2019-04-10T01:54:07.088Z,9.32
2019-04-10T01:56:41.871Z,9.12
2019-04-10T01:59:17.999Z,8.95
2019-04-10T02:02:14.825Z,9.06
2019-04-10T02:04:52.114Z,9.06
2019-04-10T02:07:26.390Z,9.09
2019-04-10T02:10:00.032Z,9.06
2019-04-10T02:12:34.838Z,9.17
2019-04-10T02:15:13.651Z,9.14
2019-04-10T02:17:46.618Z,9.16
2019-04-10T02:20:21.166Z,9.29
2019-04-10T02:23:00.071Z,9.27
2019-04-10T02:25:35.058Z,9.37
2019-04-10T02:28:09.017Z,9.45
2019-04-10T02:30:50.334Z,9.43
2019-04-10T02:33:25.444Z,9.31
2019-04-10T02:36:01.431Z,9.33
2019-04-10T02:38:56.117Z,9.31
2019-04-10T02:41:17.430Z,9.32
2019-04-10T02:43:53.838Z,9.37
2019-04-10T02:46:34.564Z,9.28
2019-04-10T02:49:08.749Z,9.28
2019-04-10T02:51:43.248Z,9.22
2019-04-10T02:54:17.634Z,9.22
2019-04-10T02:56:52.754Z,9.31
2019-04-10T02:59:27.047Z,9.39
2019-04-10T03:02:04.169Z,9.44
2019-04-10T03:04:38.153Z,9.53
2019-04-10T03:07:13.521Z,9.52
2019-04-10T03:10:00.622Z,9.55
2019-04-10T03:12:24.517Z,9.59
2019-04-10T03:14:59.115Z,9.62
2019-04-10T03:17:34.755Z,9.63
2019-04-10T03:20:10.019Z,9.66
2019-04-10T03:22:45.116Z,9.63
2019-04-10T03:25:19.417Z,9.67
2019-04-10T03:27:54.482Z,9.64
2019-04-10T03:30:29.748Z,9.69
2019-04-10T03:33:21.001Z,9.70
2019-04-10T03:35:53.024Z,9.74
2019-04-10T03:38:26.487Z,9.75
2019-04-10T03:40:59.814Z,9.76
2019-04-10T03:43:34.767Z,9.78
2019-04-10T03:46:08.933Z,9.83
2019-04-10T03:48:45.280Z,9.82
2019-04-10T03:51:18.867Z,9.81
2019-04-10T03:53:58.471Z,9.75
2019-04-10T03:56:33.893Z,9.81
2019-04-10T03:59:08.902Z,9.81
2019-04-10T04:01:43.041Z,9.79
2019-04-10T04:04:17.596Z,9.77
2019-04-10T04:06:52.265Z,9.73
2019-04-10T04:09:27.257Z,9.67
2019-04-10T04:12:02.311Z,9.66
2019-04-10T04:14:36.963Z,9.65
2019-04-10T04:17:12.399Z,9.67
2019-04-10T04:19:46.678Z,9.77
2019-04-10T04:22:22.868Z,9.64
2019-04-10T04:25:00.905Z,9.70
2019-04-10T04:27:39.919Z,9.75
2019-04-10T04:30:18.301Z,9.77
2019-04-10T04:32:52.008Z,9.74
2019-04-10T04:35:27.756Z,9.71
2019-04-10T04:38:03.413Z,9.78
2019-04-10T04:40:37.670Z,9.66
2019-04-10T04:43:12.489Z,9.60
2019-04-10T04:45:51.649Z,9.71
2019-04-10T04:48:26.318Z,9.70
2019-04-10T04:51:01.299Z,9.61
2019-04-10T04:53:36.488Z,9.60
2019-04-10T04:56:11.501Z,9.67
2019-04-10T04:58:48.208Z,9.53
2019-04-10T05:01:27.986Z,9.51
2019-04-10T05:04:02.897Z,9.57
2019-04-10T05:06:37.877Z,9.60
2019-04-10T05:09:12.068Z,9.54
2019-04-10T05:11:46.858Z,9.70
2019-04-10T05:14:22.419Z,9.79
2019-04-10T05:16:57.708Z,9.83
2019-04-10T05:19:32.031Z,9.80
2019-04-10T05:22:06.646Z,9.79
2019-04-10T05:24:41.036Z,9.60
2019-04-10T05:27:16.077Z,9.59
2019-04-10T05:29:50.758Z,9.68
2019-04-10T05:32:25.516Z,9.83
2019-04-10T05:34:59.143Z,9.99
2019-04-10T05:37:33.783Z,10.10
2019-04-10T05:40:09.788Z,10.28
2019-04-10T05:42:44.977Z,10.28
2019-04-10T05:45:23.859Z,10.38
2019-04-10T05:47:58.943Z,10.47
2019-04-10T05:50:35.613Z,10.41
2019-04-10T05:53:09.834Z,10.38
2019-04-10T05:55:45.215Z,10.53
2019-04-10T05:58:21.625Z,10.53
2019-04-10T06:00:57.594Z,10.53
2019-04-10T06:03:32.358Z,10.71
2019-04-10T06:06:06.781Z,10.73
2019-04-10T06:08:41.458Z,10.77
2019-04-10T06:11:17.154Z,11.01
2019-04-10T06:13:52.749Z,11.23
2019-04-10T06:16:28.085Z,11.45
2019-04-10T06:19:09.418Z,11.60
2019-04-10T06:21:44.008Z,11.78
2019-04-10T06:24:32.178Z,11.86
2019-04-10T06:27:06.521Z,11.89
2019-04-10T06:29:47.730Z,12.16
2019-04-10T06:32:25.523Z,12.30
2019-04-10T06:35:08.326Z,12.31
2019-04-10T06:37:43.671Z,12.30
2019-04-10T06:40:22.162Z,12.30
2019-04-10T06:43:03.150Z,12.57
2019-04-10T06:45:37.825Z,12.71
2019-04-10T06:48:17.441Z,12.84
2019-04-10T06:50:57.491Z,12.92
2019-04-10T06:53:33.111Z,13.15
2019-04-10T06:56:07.699Z,13.23
2019-04-10T06:58:42.659Z,13.08
2019-04-10T07:01:16.712Z,13.13
2019-04-10T07:04:00.925Z,13.13
2019-04-10T07:06:44.814Z,13.05
2019-04-10T07:09:09.583Z,13.24
2019-04-10T07:11:50.035Z,13.63
2019-04-10T07:14:22.541Z,13.63
2019-04-10T07:17:00.675Z,13.67
2019-04-10T07:19:34.431Z,13.73
2019-04-10T07:22:12.484Z,13.93
2019-04-10T07:24:46.037Z,14.18
2019-04-10T07:27:21.868Z,14.17
2019-04-10T07:29:59.311Z,13.98
2019-04-10T07:32:34.018Z,13.98
2019-04-10T07:35:08.970Z,13.95
2019-04-10T07:37:44.497Z,13.85
2019-04-10T07:40:18.748Z,13.90
2019-04-10T07:42:58.642Z,13.49
2019-04-10T07:45:36.288Z,13.35
2019-04-10T07:48:11.307Z,13.04
2019-04-10T07:50:46.958Z,13.03
2019-04-10T07:53:22.544Z,12.97
2019-04-10T07:56:05.634Z,13.30
2019-04-10T07:58:33.098Z,13.54
2019-04-10T08:01:07.941Z,13.85
2019-04-10T08:03:41.815Z,13.85
2019-04-10T08:08:28.016Z,14.01
2019-04-10T08:11:02.468Z,13.88
2019-04-10T08:13:42.063Z,13.89
2019-04-10T08:16:17.017Z,13.76
2019-04-10T08:18:52.204Z,13.83
2019-04-10T08:21:26.044Z,13.75
2019-04-10T08:24:00.787Z,13.61
2019-04-10T08:26:36.600Z,13.43
2019-04-10T08:29:11.978Z,13.34
2019-04-10T08:31:46.715Z,13.27
2019-04-10T08:34:21.615Z,13.21
2019-04-10T08:36:56.804Z,13.05
2019-04-10T08:39:38.796Z,13.08
2019-04-10T08:42:06.528Z,13.13
2019-04-10T08:44:40.393Z,13.16
2019-04-10T08:47:15.294Z,13.12
2019-04-10T08:49:49.440Z,13.17
2019-04-10T08:52:24.414Z,13.27
2019-04-10T08:54:58.230Z,13.30
2019-04-10T08:57:32.488Z,13.26
2019-04-10T09:00:07.996Z,13.27
2019-04-10T09:02:42.666Z,13.18
2019-04-10T09:05:17.527Z,13.32
2019-04-10T09:07:52.725Z,13.34
2019-04-10T09:10:28.133Z,13.43
2019-04-10T09:13:02.176Z,13.67
2019-04-10T09:15:36.827Z,13.91
2019-04-10T09:18:14.746Z,14.05
2019-04-10T09:20:49.245Z,14.24
2019-04-10T09:23:39.706Z,14.48
2019-04-10T09:26:08.121Z,14.45
2019-04-10T09:28:42.745Z,14.22
2019-04-10T09:31:16.183Z,14.40
2019-04-10T09:33:51.525Z,14.63
2019-04-10T09:36:24.975Z,14.84
2019-04-10T09:39:01.000Z,15.27
2019-04-10T09:41:36.355Z,15.24
2019-04-10T09:44:10.302Z,15.01
2019-04-10T09:46:46.103Z,14.71
2019-04-10T09:49:31.661Z,14.74
2019-04-10T09:51:56.522Z,14.96
2019-04-10T09:54:31.585Z,15.30
2019-04-10T09:57:06.985Z,15.53
2019-04-10T09:59:42.729Z,15.27
2019-04-10T10:02:17.670Z,14.95
2019-04-10T10:04:53.587Z,14.55
2019-04-10T10:07:28.805Z,14.42
2019-04-10T10:10:04.234Z,14.35
2019-04-10T10:12:40.793Z,14.31
2019-04-10T10:15:16.870Z,14.40
2019-04-10T10:17:48.873Z,14.43
2019-04-10T10:20:21.805Z,14.55
2019-04-10T10:22:53.852Z,14.39
2019-04-10T10:25:25.600Z,14.32
2019-04-10T10:27:58.556Z,14.86
2019-04-10T10:30:31.504Z,15.30
2019-04-10T10:33:03.696Z,15.56
2019-04-10T10:35:35.589Z,15.47
2019-04-10T10:38:07.893Z,15.28
2019-04-10T10:40:41.261Z,15.38
2019-04-10T10:43:13.297Z,15.29
2019-04-10T10:45:45.082Z,15.05
2019-04-10T10:48:18.823Z,15.13
2019-04-10T10:50:51.683Z,15.24
2019-04-10T10:53:24.075Z,15.66
2019-04-10T10:55:56.172Z,15.84
2019-04-10T10:58:28.073Z,16.15
2019-04-10T11:00:59.895Z,16.02
2019-04-10T11:03:34.129Z,15.96
2019-04-10T11:06:06.689Z,15.91
2019-04-10T11:08:39.754Z,15.95
2019-04-10T11:11:12.750Z,15.90
2019-04-10T11:13:46.946Z,15.98
2019-04-10T11:16:19.044Z,16.27
2019-04-10T11:18:50.950Z,16.18
2019-04-10T11:21:24.680Z,16.03
2019-04-10T11:23:56.790Z,15.76
2019-04-10T11:26:30.239Z,15.83
2019-04-10T11:29:03.632Z,15.89
2019-04-10T11:31:38.247Z,16.09
2019-04-10T11:34:11.371Z,16.28
2019-04-10T11:36:44.053Z,16.23
2019-04-10T11:41:50.429Z,16.88
2019-04-10T11:44:22.292Z,16.97
2019-04-10T11:46:55.602Z,16.86
2019-04-10T11:49:28.959Z,16.54
2019-04-10T11:52:03.381Z,16.72
2019-04-10T11:54:40.460Z,16.93
2019-04-10T11:57:10.015Z,17.15
2019-04-10T11:59:44.774Z,17.28
2019-04-10T12:02:20.378Z,17.41
2019-04-10T12:07:55.015Z,17.51
2019-04-10T12:12:33.395Z,16.64
2019-04-10T12:15:05.982Z,16.44
2019-04-10T12:17:38.437Z,15.97
2019-04-10T12:20:11.173Z,15.56
2019-04-10T12:22:44.102Z,15.57
2019-04-10T12:25:17.390Z,15.56
2019-04-10T12:27:49.479Z,15.53
2019-04-10T12:30:21.776Z,15.54
2019-04-10T12:32:54.702Z,15.66
2019-04-10T12:35:27.014Z,15.66
2019-04-10T12:38:02.903Z,15.61
2019-04-10T12:40:34.847Z,15.55
2019-04-10T12:43:08.472Z,15.56
2019-04-10T12:45:41.887Z,15.30
2019-04-10T12:48:14.543Z,15.43
2019-04-10T12:50:47.524Z,15.43
2019-04-10T12:53:19.685Z,15.63
2019-04-10T12:55:52.083Z,15.88
2019-04-10T12:58:24.569Z,15.98
2019-04-10T13:01:00.649Z,16.00
2019-04-10T13:03:33.562Z,15.97
2019-04-10T13:06:05.963Z,15.57
2019-04-10T13:08:54.379Z,15.49
2019-04-10T13:11:12.109Z,15.42
2019-04-10T13:13:44.366Z,15.44
2019-04-10T13:16:18.204Z,15.38
2019-04-10T13:18:50.666Z,15.13
2019-04-10T13:21:23.243Z,15.02
2019-04-10T13:23:55.451Z,15.06
2019-04-10T13:26:28.186Z,14.89
2019-04-10T13:29:00.492Z,14.95
2019-04-10T13:31:33.124Z,14.86
2019-04-10T13:34:07.097Z,14.68
2019-04-10T13:36:39.727Z,14.70
2019-04-10T13:39:17.747Z,14.51
2019-04-10T13:41:50.388Z,14.33
2019-04-10T13:44:22.734Z,14.39
2019-04-10T13:46:55.562Z,14.34
2019-04-10T13:49:30.293Z,14.32
2019-04-10T13:52:02.097Z,14.13
2019-04-10T13:54:34.587Z,13.99
2019-04-10T13:57:06.390Z,14.00
2019-04-10T13:59:38.049Z,13.80
2019-04-10T14:02:15.546Z,13.70
2019-04-10T14:04:47.981Z,13.68
2019-04-10T14:07:19.907Z,13.45
2019-04-10T14:09:52.478Z,13.55
2019-04-10T14:12:25.460Z,13.48
2019-04-10T14:14:57.351Z,13.35
2019-04-10T14:17:29.920Z,13.31
2019-04-10T14:20:02.781Z,13.34
2019-04-10T14:22:36.309Z,13.31
2019-04-10T14:25:12.154Z,13.35
2019-04-10T14:27:44.586Z,13.39
2019-04-10T14:30:23.568Z,13.39
2019-04-10T14:32:56.432Z,13.43
2019-04-10T14:35:29.500Z,13.50
2019-04-10T14:38:03.031Z,13.58
2019-04-10T14:40:35.984Z,13.44
2019-04-10T14:43:08.053Z,13.37
2019-04-10T14:45:39.837Z,13.26
2019-04-10T14:48:11.918Z,13.32
2019-04-10T14:50:47.081Z,13.35
2019-04-10T14:53:19.340Z,13.32
2019-04-10T14:55:51.496Z,13.20
2019-04-10T14:58:28.210Z,13.33
2019-04-10T15:00:57.703Z,13.27
2019-04-10T15:03:30.721Z,13.22
2019-04-10T15:06:04.990Z,13.17
2019-04-10T15:08:37.263Z,13.17
2019-04-10T15:11:10.732Z,13.21
2019-04-10T15:13:42.865Z,13.28
2019-04-10T15:16:16.788Z,13.03
2019-04-10T15:18:50.366Z,12.87
2019-04-10T15:21:23.057Z,12.74
2019-04-10T15:23:55.237Z,12.61
2019-04-10T15:26:28.167Z,12.61
2019-04-10T15:29:00.275Z,12.65
2019-04-10T15:31:31.961Z,12.62
2019-04-10T15:34:03.913Z,12.56
2019-04-10T15:36:36.413Z,12.58
2019-04-10T15:39:10.892Z,12.46
2019-04-10T15:41:43.488Z,12.35
2019-04-10T15:44:16.368Z,12.14
2019-04-10T15:46:49.083Z,12.11
2019-04-10T15:49:21.286Z,12.01
2019-04-10T15:51:53.236Z,11.99
2019-04-10T15:54:25.662Z,11.98
2019-04-10T15:56:58.560Z,11.96
2019-04-10T15:59:30.344Z,11.88
2019-04-10T16:02:03.611Z,11.86
2019-04-10T16:04:35.930Z,11.82
2019-04-10T16:07:07.840Z,11.72
2019-04-10T16:09:47.692Z,11.67
2019-04-10T16:12:16.892Z,11.67
2019-04-10T16:14:48.783Z,11.67
2019-04-10T16:17:33.582Z,11.56
2019-04-10T16:20:27.557Z,11.57
2019-04-10T16:23:10.078Z,11.53
2019-04-10T16:25:46.654Z,11.47
2019-04-10T16:28:19.093Z,11.45
2019-04-10T16:30:51.289Z,11.45
2019-04-10T16:33:23.782Z,11.36
2019-04-10T16:35:56.809Z,11.36
2019-04-10T16:38:29.063Z,11.36
2019-04-10T16:41:04.921Z,11.40
2019-04-10T16:43:38.200Z,11.28
2019-04-10T16:46:11.208Z,11.28
2019-04-10T16:48:44.402Z,11.04
2019-04-10T16:51:20.740Z,11.04
2019-04-10T16:53:53.700Z,10.94
2019-04-10T16:56:26.440Z,10.92
2019-04-10T16:58:58.513Z,10.91
2019-04-10T17:01:30.959Z,10.82
2019-04-10T17:04:02.988Z,10.89
2019-04-10T17:06:34.825Z,10.78
2019-04-10T17:09:10.522Z,10.78
2019-04-10T17:11:42.518Z,10.65
2019-04-10T17:14:15.187Z,10.78
2019-04-10T17:16:48.207Z,10.80
2019-04-10T17:19:20.009Z,10.80
2019-04-10T17:21:52.167Z,10.79
2019-04-10T17:24:25.052Z,10.79
2019-04-10T17:26:57.329Z,10.85
2019-04-10T17:29:29.714Z,10.85
2019-04-10T17:32:02.573Z,10.80
2019-04-10T17:34:35.752Z,10.80
2019-04-10T17:37:07.599Z,10.77
2019-04-10T17:39:39.861Z,10.74
2019-04-10T17:42:12.328Z,10.71
2019-04-10T17:44:45.555Z,10.56
2019-04-10T17:47:17.607Z,10.56
2019-04-10T17:49:49.841Z,10.54
2019-04-10T17:52:22.808Z,10.49
2019-04-10T17:54:55.451Z,10.50
2019-04-10T17:57:35.248Z,10.56
2019-04-10T18:00:00.864Z,10.56
2019-04-10T18:02:34.733Z,10.49
2019-04-10T18:05:06.942Z,10.56
2019-04-10T18:07:38.729Z,10.52
2019-04-10T18:10:11.883Z,10.55
2019-04-10T18:12:43.911Z,10.55
2019-04-10T18:15:15.871Z,10.57
2019-04-10T18:17:47.791Z,10.57
2019-04-10T18:20:19.971Z,10.51
2019-04-10T18:22:53.245Z,10.51
2019-04-10T18:25:25.636Z,10.55
2019-04-10T18:27:58.515Z,10.53
2019-04-10T18:30:32.994Z,10.57
2019-04-10T18:33:05.054Z,10.57
2019-04-10T18:35:38.573Z,10.59
2019-04-10T18:38:11.274Z,10.50
2019-04-10T18:40:53.098Z,10.50
2019-04-10T18:43:16.729Z,10.48
2019-04-10T18:46:03.324Z,10.42
2019-04-10T18:48:24.895Z,10.42
2019-04-10T18:50:57.274Z,10.34
2019-04-10T18:53:29.580Z,10.39
2019-04-10T18:56:02.879Z,10.37
2019-04-10T18:58:50.286Z,10.40
2019-04-10T19:01:46.048Z,10.49
2019-04-10T19:04:24.568Z,10.45
2019-04-10T19:06:58.753Z,10.41
2019-04-10T19:09:33.403Z,10.27
2019-04-10T19:12:06.360Z,10.29
2019-04-10T19:14:38.653Z,10.21
2019-04-10T19:17:11.098Z,10.21
2019-04-10T19:19:43.939Z,10.17
2019-04-10T19:22:18.015Z,10.13
2019-04-10T19:24:50.413Z,10.16
2019-04-10T19:27:22.266Z,10.12
2019-04-10T19:29:54.954Z,10.14
2019-04-10T19:32:33.295Z,10.22
2019-04-10T19:35:06.591Z,10.20
2019-04-10T19:37:40.831Z,10.23
2019-04-10T19:40:13.918Z,10.26
2019-04-10T19:42:45.917Z,10.30
2019-04-10T19:45:17.784Z,10.27
2019-04-10T19:47:50.662Z,10.27
2019-04-10T19:50:23.410Z,10.20
2019-04-10T19:52:55.568Z,10.18
2019-04-10T19:55:29.590Z,10.17
2019-04-10T19:58:01.755Z,10.18
2019-04-10T20:00:36.542Z,10.19
2019-04-10T20:03:09.371Z,10.22
2019-04-10T20:05:44.201Z,10.27
2019-04-10T20:08:15.887Z,10.14
2019-04-10T20:10:47.831Z,10.19
2019-04-10T20:13:20.586Z,10.23
2019-04-10T20:15:53.059Z,10.20
2019-04-10T20:18:26.342Z,10.24
2019-04-10T20:20:59.685Z,10.14
2019-04-10T20:23:32.066Z,10.14
2019-04-10T20:26:05.137Z,10.16
2019-04-10T20:28:40.728Z,10.11
2019-04-10T20:31:19.238Z,10.07
2019-04-10T20:33:51.289Z,10.09
2019-04-10T20:36:22.880Z,10.11
2019-04-10T20:38:54.711Z,10.05
2019-04-10T20:41:26.681Z,10.03
2019-04-10T20:43:59.522Z,10.00
2019-04-10T20:46:31.559Z,10.02
2019-04-10T20:49:03.330Z,9.94
2019-04-10T20:51:35.090Z,9.86
2019-04-10T20:54:08.643Z,9.82
2019-04-10T20:56:41.066Z,9.86
2019-04-10T20:59:13.727Z,9.97
2019-04-10T21:01:45.602Z,10.01
2019-04-10T21:04:18.049Z,10.01
2019-04-10T21:06:50.114Z,9.96
2019-04-10T21:09:22.154Z,9.95
2019-04-10T21:12:02.206Z,9.85
2019-04-10T21:14:28.126Z,9.89
2019-04-10T21:17:00.444Z,9.78
2019-04-10T21:19:33.436Z,9.74
2019-04-10T21:22:05.926Z,9.73
2019-04-10T21:24:37.921Z,9.54
2019-04-10T21:27:09.772Z,9.50
2019-04-10T21:30:07.164Z,9.44
2019-04-10T21:32:49.992Z,9.40
2019-04-10T21:35:27.535Z,9.35
2019-04-10T21:38:00.076Z,9.40
2019-04-10T21:40:32.681Z,9.36
2019-04-10T21:43:06.043Z,9.36
2019-04-10T21:45:39.086Z,9.33
2019-04-10T21:48:12.548Z,9.27
2019-04-10T21:50:45.763Z,9.17
2019-04-10T21:53:19.882Z,9.17
2019-04-10T21:55:53.828Z,9.20
2019-04-10T21:58:26.212Z,9.15
2019-04-10T22:01:07.653Z,9.17
2019-04-10T22:03:41.457Z,9.14
2019-04-10T22:06:33.643Z,9.09
2019-04-10T22:09:39.694Z,8.90
2019-04-10T22:12:27.986Z,8.94
2019-04-10T22:14:52.973Z,8.94
2019-04-10T22:17:24.883Z,8.83
2019-04-10T22:19:59.135Z,8.80
2019-04-10T22:22:31.673Z,8.78
2019-04-10T22:25:03.753Z,8.80
2019-04-10T22:27:36.135Z,8.81
2019-04-10T22:30:08.446Z,8.91
2019-04-10T22:32:41.181Z,8.95
2019-04-10T22:35:13.422Z,8.94
2019-04-10T22:37:46.360Z,8.92
2019-04-10T22:40:21.470Z,8.93
2019-04-10T22:42:53.329Z,8.99
2019-04-10T22:45:31.128Z,9.01
2019-04-10T22:48:04.170Z,9.00
2019-04-10T22:50:38.414Z,9.05
2019-04-10T22:53:11.380Z,9.01
2019-04-10T22:55:44.397Z,9.02
2019-04-10T22:58:17.116Z,9.00
2019-04-10T23:00:50.986Z,9.06
2019-04-10T23:03:24.532Z,9.07
2019-04-10T23:05:56.524Z,9.06
2019-04-10T23:08:29.202Z,9.10
2019-04-10T23:11:02.024Z,9.11
2019-04-10T23:13:34.766Z,9.12
2019-04-10T23:16:13.863Z,9.17
2019-04-10T23:18:45.663Z,9.16
2019-04-10T23:21:18.806Z,9.19
2019-04-10T23:23:51.645Z,9.26
2019-04-10T23:26:24.830Z,9.27
2019-04-10T23:28:57.994Z,9.22
2019-04-10T23:31:29.926Z,9.17
2019-04-10T23:34:01.731Z,9.18
2019-04-10T23:36:34.040Z,9.28
2019-04-10T23:39:10.013Z,9.25
2019-04-10T23:41:42.205Z,9.25
2019-04-10T23:44:14.416Z,9.27
2019-04-10T23:46:47.398Z,9.17
2019-04-10T23:49:19.772Z,9.19
2019-04-10T23:51:53.614Z,9.13
2019-04-10T23:54:25.586Z,9.16
2019-04-10T23:56:57.315Z,9.17
2019-04-10T23:59:28.926Z,9.23
